Time;durP1;ratioP1;P1;durP2;ratioP2;P2;SDS_P1;SDS_P2;PMS_P1;PMS_P2;Temp;Humidity;BMP_temperature;BMP_pressure;BME280_temperature;BME280_humidity;BME280_pressure;Samples;Min_cycle;Max_cycle;Signal;HPM_P1;HPM_P2
2023/01/12 00:00:42;;;;;;;15.40;3.03;;;;;;;7.41;100.00;100946.59;5252363;28;20661;-80
2023/01/12 00:03:13;;;;;;;13.20;3.30;;;;;;;7.39;100.00;100951.88;5252807;28;20079;-80
2023/01/12 00:05:44;;;;;;;13.70;2.73;;;;;;;7.39;100.00;100941.47;5251238;28;20033;-77
2023/01/12 00:08:16;;;;;;;16.50;3.43;;;;;;;7.39;100.00;100944.06;5253624;28;20087;-79
2023/01/12 00:10:47;;;;;;;11.40;3.30;;;;;;;7.43;100.00;100944.78;5252075;28;20127;-81
2023/01/12 00:13:18;;;;;;;13.17;2.73;;;;;;;7.46;100.00;100942.88;5253717;28;20483;-77
2023/01/12 00:18:39;;;;;;;13.73;2.77;;;;;;;7.45;100.00;100943.78;5253662;28;20509;-82
2023/01/12 00:21:11;;;;;;;9.00;2.87;;;;;;;7.47;100.00;100928.94;5252391;28;20108;-83
2023/01/12 00:23:43;;;;;;;13.97;4.07;;;;;;;7.42;100.00;100920.47;5253432;28;20029;-80
2023/01/12 00:26:14;;;;;;;10.27;3.27;;;;;;;7.48;100.00;100920.22;5256425;28;20028;-75
2023/01/12 00:28:46;;;;;;;13.10;3.40;;;;;;;7.52;100.00;100925.28;5257625;28;20036;-83
2023/01/12 00:31:17;;;;;;;10.53;3.03;;;;;;;7.52;100.00;100922.66;5257532;28;20044;-72
2023/01/12 00:33:48;;;;;;;14.60;3.00;;;;;;;7.56;100.00;100916.38;5257334;28;20029;-82
2023/01/12 00:36:20;;;;;;;13.57;2.90;;;;;;;7.55;100.00;100918.16;5255566;28;20168;-79
2023/01/12 00:38:51;;;;;;;10.97;3.50;;;;;;;7.52;100.00;100907.03;5261315;28;20037;-82
2023/01/12 00:47:05;;;;;;;11.60;3.13;;;;;;;7.57;100.00;100897.25;5256911;28;20830;-77
2023/01/12 00:49:38;;;;;;;12.63;3.50;;;;;;;7.57;100.00;100898.09;5255275;28;20475;-74
2023/01/12 00:52:13;;;;;;;11.87;3.60;;;;;;;7.52;100.00;100891.41;5252430;28;20064;-82
2023/01/12 00:54:44;;;;;;;10.50;3.67;;;;;;;7.54;100.00;100893.00;5256201;28;20076;-78
2023/01/12 00:57:16;;;;;;;11.83;3.37;;;;;;;7.53;100.00;100885.25;5254357;28;20060;-75
2023/01/12 00:59:48;;;;;;;11.83;3.30;;;;;;;7.55;100.00;100883.44;5254675;28;20036;-83
2023/01/12 01:02:19;;;;;;;12.27;4.53;;;;;;;7.54;100.00;100882.56;5255746;28;20364;-83
2023/01/12 01:04:50;;;;;;;14.43;3.93;;;;;;;7.59;100.00;100874.56;5254037;28;20051;-82
2023/01/12 01:07:22;;;;;;;13.17;3.87;;;;;;;7.58;100.00;100865.03;5254977;28;20387;-77
2023/01/12 01:09:53;;;;;;;19.10;4.40;;;;;;;7.32;100.00;100817.59;5256411;28;20633;-78
2023/01/12 01:12:25;;;;;;;14.77;4.03;;;;;;;7.56;100.00;100856.44;5256007;28;20029;-80
2023/01/12 01:14:56;;;;;;;19.80;3.50;;;;;;;7.55;100.00;100858.22;5255817;28;20053;-82
2023/01/12 01:17:28;;;;;;;16.07;3.13;;;;;;;7.58;100.00;100860.66;5255671;28;20495;-82
2023/01/12 01:20:00;;;;;;;19.80;3.53;;;;;;;7.59;100.00;100853.72;5255320;28;20104;-75
2023/01/12 01:22:31;;;;;;;21.80;4.37;;;;;;;7.58;100.00;100859.81;5254007;28;20060;-72
2023/01/12 01:25:02;;;;;;;18.93;4.30;;;;;;;7.58;100.00;100846.78;5255454;28;20017;-81
2023/01/12 01:27:34;;;;;;;21.93;4.87;;;;;;;7.60;100.00;100845.81;5255200;28;20108;-76
2023/01/12 01:30:06;;;;;;;16.90;4.40;;;;;;;7.58;100.00;100850.25;5255061;28;20039;-80
2023/01/12 01:32:37;;;;;;;18.93;4.70;;;;;;;7.59;100.00;100844.09;5256485;28;20570;-77
2023/01/12 01:35:09;;;;;;;24.17;4.73;;;;;;;7.54;100.00;100842.66;5251138;28;20039;-80
2023/01/12 01:37:40;;;;;;;25.77;6.00;;;;;;;7.58;100.00;100841.56;5254474;28;20036;-78
2023/01/12 01:40:11;;;;;;;17.30;4.43;;;;;;;7.60;100.00;100850.16;5254501;28;20050;-80
2023/01/12 01:42:43;;;;;;;24.93;5.80;;;;;;;7.53;100.00;100841.81;5254864;28;20033;-80
2023/01/12 01:45:15;;;;;;;25.83;6.40;;;;;;;7.55;100.00;100837.38;5255362;28;20025;-75
2023/01/12 01:47:59;;;;;;;30.80;5.00;;;;;;;7.59;100.00;100835.47;5249752;28;20036;-81
2023/01/12 01:50:38;;;;;;;24.03;4.20;;;;;;;7.58;100.00;100828.53;5253863;28;20037;-76
2023/01/12 01:53:13;;;;;;;21.73;4.60;;;;;;;7.57;100.00;100817.28;5233183;28;20037;-77
2023/01/12 01:55:49;;;;;;;34.40;6.40;;;;;;;7.47;100.00;100788.19;5255470;28;20025;-76
2023/01/12 01:58:38;;;;;;;21.27;4.13;;;;;;;7.47;100.00;100803.00;5256191;28;20063;-73
2023/01/12 02:01:10;;;;;;;17.03;4.70;;;;;;;7.55;100.00;100800.88;5254736;28;20107;-76
2023/01/12 02:03:43;;;;;;;17.87;4.67;;;;;;;7.55;100.00;100800.88;5254868;28;20113;-79
2023/01/12 02:06:14;;;;;;;22.13;5.57;;;;;;;7.54;100.00;100793.97;5250842;28;20036;-80
2023/01/12 02:08:53;;;;;;;22.20;4.17;;;;;;;7.53;100.00;100779.25;5253869;28;20045;-83
2023/01/12 02:17:39;;;;;;;17.27;5.07;;;;;;;7.57;100.00;100788.63;5276245;28;20041;-75
2023/01/12 02:20:29;;;;;;;19.50;4.70;;;;;;;7.58;100.00;100779.03;5273621;28;20024;-84
2023/01/12 02:23:22;;;;;;;22.60;5.27;;;;;;;7.57;100.00;100772.13;5276312;28;20033;-79
2023/01/12 02:26:21;;;;;;;21.47;3.40;;;;;;;7.52;100.00;100774.13;5273782;28;20727;-78
2023/01/12 02:29:22;;;;;;;26.07;5.77;;;;;;;7.56;100.00;100780.84;5274571;28;20027;-76
2023/01/12 02:31:56;;;;;;;18.57;4.53;;;;;;;7.55;100.00;100773.97;5269295;28;20504;-76
2023/01/12 02:34:48;;;;;;;19.63;4.18;;;;;;;7.56;100.00;100766.06;5273066;28;20036;-78
2023/01/12 02:37:41;;;;;;;19.60;4.13;;;;;;;7.55;100.00;100772.22;5275434;28;20022;-81
2023/01/12 02:40:29;;;;;;;20.73;3.87;;;;;;;7.56;100.00;100762.59;5289083;28;20123;-84
2023/01/12 02:43:13;;;;;;;22.53;4.83;;;;;;;7.60;100.00;100756.34;5275518;28;20047;-84
2023/01/12 02:45:58;;;;;;;21.00;4.80;;;;;;;7.63;100.00;100750.97;5275080;28;20050;-79
2023/01/12 02:48:33;;;;;;;27.00;5.10;;;;;;;7.60;100.00;100751.13;5274535;28;20035;-84
2023/01/12 02:51:14;;;;;;;25.00;5.30;;;;;;;7.35;100.00;100705.41;5273397;28;20043;-77
2023/01/12 02:53:51;;;;;;;19.33;3.70;;;;;;;7.56;100.00;100737.41;5273900;28;20036;-86
2023/01/12 02:56:33;;;;;;;17.30;4.17;;;;;;;7.57;100.00;100735.66;5274294;28;20115;-82
2023/01/12 02:59:13;;;;;;;22.80;4.37;;;;;;;7.62;100.00;100738.88;5275018;28;20060;-76
2023/01/12 03:01:47;;;;;;;18.63;4.03;;;;;;;7.60;100.00;100735.47;5274605;28;20045;-82
2023/01/12 03:04:21;;;;;;;19.23;3.57;;;;;;;7.65;100.00;100722.22;5273198;28;20050;-81
2023/01/12 03:06:55;;;;;;;25.13;4.23;;;;;;;7.61;100.00;100706.75;5273613;28;20035;-83
2023/01/12 03:09:34;;;;;;;17.70;4.38;;;;;;;7.49;100.00;100687.34;5275084;28;20399;-76
2023/01/12 03:12:09;;;;;;;17.43;3.23;;;;;;;7.58;100.00;100696.47;5275258;28;20703;-84
2023/01/12 03:14:44;;;;;;;17.93;3.33;;;;;;;7.58;100.00;100685.19;5273713;28;20079;-78
2023/01/12 03:17:29;;;;;;;19.33;4.20;;;;;;;7.65;100.00;100680.50;5274066;28;20036;-81
2023/01/12 03:20:30;;;;;;;;;;;;;;;7.67;100.00;100678.69;5273861;28;20083;-79
2023/01/12 03:23:09;;;;;;;24.50;4.00;;;;;;;7.58;100.00;100674.75;5265414;28;19912;-78
2023/01/12 03:25:44;;;;;;;15.80;3.63;;;;;;;7.54;100.00;100649.78;5275471;28;20055;-78
2023/01/12 03:28:18;;;;;;;14.73;3.97;;;;;;;7.61;100.00;100659.81;5275202;28;20375;-80
2023/01/12 03:31:02;;;;;;;15.48;3.60;;;;;;;7.63;100.00;100668.41;5274567;28;20025;-77
2023/01/12 03:33:34;;;;;;;17.50;3.83;;;;;;;7.57;100.00;100647.88;5275336;28;20107;-76
2023/01/12 03:36:53;;;;;;;17.40;5.03;;;;;;;7.61;100.00;100654.59;5273641;28;20459;-76
2023/01/12 03:39:37;;;;;;;17.53;3.40;;;;;;;7.59;100.00;100630.38;5268412;28;20765;-79
2023/01/12 03:42:16;;;;;;;15.63;4.22;;;;;;;7.63;100.00;100625.84;5254130;28;20120;-78
2023/01/12 03:44:59;;;;;;;11.93;3.83;;;;;;;7.60;100.00;100632.09;5263522;28;20020;-73
2023/01/12 03:47:32;;;;;;;11.23;3.50;;;;;;;7.59;100.00;100635.59;5273960;28;20409;-77
2023/01/12 03:50:13;;;;;;;17.23;5.00;;;;;;;7.59;100.00;100616.53;5273832;28;20025;-72
2023/01/12 03:52:45;;;;;;;16.47;3.57;;;;;;;7.58;100.00;100593.97;5274941;28;20352;-75
2023/01/12 03:55:21;;;;;;;18.97;4.63;;;;;;;7.56;100.00;100578.41;5274785;28;20031;-74
2023/01/12 03:57:53;;;;;;;20.50;3.57;;;;;;;7.56;100.00;100568.00;5273719;28;20025;-81
2023/01/12 04:00:26;;;;;;;15.67;3.83;;;;;;;7.53;100.00;100551.66;5277731;28;20085;-80
2023/01/12 04:03:11;;;;;;;16.27;3.53;;;;;;;7.49;100.00;100554.44;5276686;28;20021;-78
2023/01/12 04:05:44;;;;;;;19.85;3.88;;;;;;;7.57;100.00;100559.28;5276722;28;20033;-75
2023/01/12 04:08:16;;;;;;;14.07;2.90;;;;;;;7.56;100.00;100551.50;5278004;28;20025;-80
2023/01/12 04:10:48;;;;;;;17.57;3.20;;;;;;;7.57;100.00;100553.19;5277247;28;20374;-77
2023/01/12 04:13:19;;;;;;;14.17;3.37;;;;;;;7.55;100.00;100542.00;5278311;28;20029;-80
2023/01/12 04:15:50;;;;;;;12.10;3.03;;;;;;;7.52;100.00;100523.94;5277899;28;20558;-78
2023/01/12 04:18:22;;;;;;;15.30;3.83;;;;;;;7.53;100.00;100523.84;5277628;28;20203;-81
2023/01/12 04:20:53;;;;;;;17.20;3.57;;;;;;;7.54;100.00;100517.72;5276518;28;20068;-81
2023/01/12 04:23:24;;;;;;;15.30;3.73;;;;;;;7.56;100.00;100535.88;5277786;28;20086;-80
2023/01/12 04:25:56;;;;;;;15.67;3.37;;;;;;;7.53;100.00;100525.59;5276518;28;20032;-83
2023/01/12 04:28:27;;;;;;;18.83;4.40;;;;;;;7.45;100.00;100503.38;5277885;28;20029;-76
2023/01/12 04:30:58;;;;;;;16.83;4.10;;;;;;;7.49;100.00;100504.06;5275848;28;20039;-75
2023/01/12 04:33:29;;;;;;;26.07;4.87;;;;;;;7.45;100.00;100494.75;5275217;28;20016;-81
2023/01/12 04:36:01;;;;;;;15.03;2.93;;;;;;;7.45;100.00;100476.50;5276779;28;20486;-80
2023/01/12 04:38:32;;;;;;;21.67;4.73;;;;;;;7.46;100.00;100473.81;5277786;28;20451;-78
2023/01/12 04:41:05;;;;;;;22.03;3.13;;;;;;;7.34;100.00;100466.66;5276698;28;20150;-79
2023/01/12 04:43:36;;;;;;;20.83;4.60;;;;;;;7.44;100.00;100475.66;5276877;28;20031;-74
2023/01/12 04:46:09;;;;;;;16.13;3.30;;;;;;;7.44;100.00;100467.84;5276402;28;20028;-78
2023/01/12 04:48:42;;;;;;;16.27;3.70;;;;;;;7.44;100.00;100461.78;5278242;28;20060;-78
2023/01/12 04:51:14;;;;;;;15.20;3.00;;;;;;;7.41;100.00;100449.78;5276295;28;20043;-75
2023/01/12 04:53:47;;;;;;;21.20;3.63;;;;;;;7.38;100.00;100442.13;5276876;28;20498;-75
2023/01/12 04:56:19;;;;;;;18.97;3.40;;;;;;;7.38;100.00;100439.53;5276387;28;20138;-79
2023/01/12 04:59:00;;;;;;;26.37;4.53;;;;;;;7.36;100.00;100428.34;5277289;28;20036;-77
2023/01/12 05:01:32;;;;;;;18.30;3.60;;;;;;;7.21;100.00;100402.16;5276566;28;20045;-76
2023/01/12 05:04:03;;;;;;;13.67;3.00;;;;;;;7.34;100.00;100432.78;5276337;28;20487;-73
2023/01/12 05:06:34;;;;;;;16.07;3.87;;;;;;;7.31;100.00;100436.41;5276317;28;20029;-71
2023/01/12 05:11:59;;;;;;;22.03;4.60;;;;;;;7.32;100.00;100434.63;5273405;28;20040;-76
2023/01/12 05:14:31;;;;;;;22.73;4.10;;;;;;;7.17;100.00;100429.31;5276188;28;20048;-75
2023/01/12 05:17:02;;;;;;;24.97;3.57;;;;;;;7.29;100.00;100420.00;5276297;28;20032;-75
2023/01/12 05:19:33;;;;;;;17.77;3.47;;;;;;;7.31;100.00;100428.59;5275713;28;20031;-76
2023/01/12 05:22:05;;;;;;;22.53;4.07;;;;;;;7.29;100.00;100426.97;5277123;28;20071;-76
2023/01/12 05:24:36;;;;;;;17.80;3.33;;;;;;;7.29;100.00;100434.78;5274830;28;20036;-74
2023/01/12 05:27:07;;;;;;;16.90;3.03;;;;;;;7.27;100.00;100432.25;5266203;28;20191;-77
2023/01/12 05:29:38;;;;;;;22.20;3.27;;;;;;;7.07;100.00;100384.66;5261145;28;20036;-74
2023/01/12 05:32:10;;;;;;;17.03;2.70;;;;;;;7.21;100.00;100406.56;5275475;28;20052;-73
2023/01/12 05:34:41;;;;;;;15.77;3.00;;;;;;;7.28;100.00;100407.88;5275382;28;20032;-72
2023/01/12 05:37:12;;;;;;;19.50;3.20;;;;;;;7.26;100.00;100400.16;5276306;28;20032;-77
2023/01/12 05:39:44;;;;;;;22.73;4.17;;;;;;;7.31;100.00;100412.97;5275898;28;20584;-78
2023/01/12 05:45:06;;;;;;;14.40;3.00;;;;;;;7.26;100.00;100418.38;5274958;28;20032;-73
2023/01/12 05:47:38;;;;;;;20.80;4.80;;;;;;;7.26;100.00;100400.16;5276660;28;20546;-75
2023/01/12 05:50:09;;;;;;;20.73;3.50;;;;;;;7.24;100.00;100407.22;5274311;28;20037;-71
2023/01/12 05:52:40;;;;;;;17.33;3.80;;;;;;;7.30;100.00;100400.84;5275642;28;20616;-75
2023/01/12 05:55:12;;;;;;;20.90;3.37;;;;;;;7.24;100.00;100394.19;5276143;28;20025;-74
2023/01/12 05:57:43;;;;;;;16.20;3.23;;;;;;;7.32;100.00;100398.16;5276009;28;20086;-75
2023/01/12 06:00:15;;;;;;;12.30;2.60;;;;;;;7.33;100.00;100405.88;5276323;28;20020;-72
2023/01/12 06:02:46;;;;;;;17.43;3.20;;;;;;;7.32;100.00;100414.63;5276381;28;20115;-76
2023/01/12 06:05:17;;;;;;;16.87;2.60;;;;;;;7.34;100.00;100401.50;5272988;28;20017;-75
2023/01/12 06:07:49;;;;;;;15.93;3.47;;;;;;;7.34;100.00;100391.94;5276342;28;20109;-73
2023/01/12 06:10:20;;;;;;;19.57;3.20;;;;;;;7.36;100.00;100399.69;5275948;28;20036;-75
2023/01/12 06:15:42;;;;;;;10.80;3.30;;;;;;;7.38;100.00;100409.09;5276407;28;20057;-76
2023/01/12 06:18:13;;;;;;;14.53;3.23;;;;;;;7.39;100.00;100420.34;5275865;28;20383;-72
2023/01/12 06:20:44;;;;;;;13.63;2.13;;;;;;;7.41;100.00;100407.25;5275059;28;20031;-75
2023/01/12 06:23:15;;;;;;;13.83;2.80;;;;;;;7.43;100.00;100400.19;5275742;28;20028;-77
2023/01/12 06:25:47;;;;;;;13.57;2.67;;;;;;;7.41;100.00;100400.28;5275327;28;20032;-75
2023/01/12 06:28:18;;;;;;;12.90;2.27;;;;;;;7.44;100.00;100410.53;5275823;28;20024;-76
2023/01/12 06:31:01;;;;;;;15.90;2.43;;;;;;;7.48;100.00;100403.38;5275627;28;20025;-72
2023/01/12 06:33:33;;;;;;;11.33;2.40;;;;;;;7.45;100.00;100409.59;5274787;28;20028;-74
2023/01/12 06:36:05;;;;;;;7.83;1.93;;;;;;;7.45;100.00;100420.00;5274064;28;20056;-76
2023/01/12 06:38:36;;;;;;;12.07;2.53;;;;;;;7.50;100.00;100414.56;5273734;28;20036;-73
2023/01/12 06:42:27;;;;;;;16.07;2.67;;;;;;;7.52;100.00;100409.28;5274530;28;20050;-76
2023/01/12 06:44:01;;;;;;;9.67;1.77;;;;;;;7.54;100.00;100410.03;5273202;28;20060;-70
2023/01/12 06:46:32;;;;;;;13.90;2.53;;;;;;;7.55;100.00;100404.75;5275757;28;20052;-76
2023/01/12 06:49:04;;;;;;;13.83;2.47;;;;;;;7.55;100.00;100399.53;5274836;28;20035;-77
2023/01/12 06:51:35;;;;;;;9.57;2.03;;;;;;;7.54;100.00;100395.22;5273976;28;20082;-79
2023/01/12 06:54:06;;;;;;;8.37;2.03;;;;;;;7.55;100.00;100386.50;5273507;28;20079;-78
2023/01/12 06:56:38;;;;;;;8.87;1.87;;;;;;;7.56;100.00;100413.38;5274131;28;20078;-72
2023/01/12 06:59:11;;;;;;;9.27;2.53;;;;;;;7.55;100.00;100401.28;5273057;28;20063;-76
2023/01/12 07:01:42;;;;;;;7.17;1.73;;;;;;;7.58;100.00;100403.72;5275057;28;20103;-76
2023/01/12 07:04:13;;;;;;;10.83;1.80;;;;;;;7.60;100.00;100387.09;5273749;28;20120;-78
2023/01/12 07:06:45;;;;;;;10.57;2.10;;;;;;;7.59;100.00;100408.03;5274565;28;20070;-74
2023/01/12 07:09:17;;;;;;;7.17;1.70;;;;;;;7.58;100.00;100390.69;5274754;28;20027;-74
2023/01/12 07:11:48;;;;;;;6.70;1.70;;;;;;;7.62;100.00;100394.81;5275350;28;20027;-77
2023/01/12 07:14:20;;;;;;;6.90;2.37;;;;;;;7.66;100.00;100400.72;5274524;28;20773;-73
2023/01/12 07:16:51;;;;;;;6.20;1.70;;;;;;;7.65;100.00;100396.41;5274994;28;20032;-77
2023/01/12 07:20:21;;;;;;;7.47;1.50;;;;;;;-150.27;100.00;61272.81;5273521;28;20086;-74
2023/01/12 07:23:17;;;;;;;10.63;2.13;;;;;;;-150.27;100.00;61272.81;5274723;28;20487;-75
2023/01/12 07:25:56;;;;;;;7.17;1.93;;;;;;;7.65;100.00;100396.41;5272485;28;20078;-74
2023/01/12 07:29:12;;;;;;;9.10;1.87;;;;;;;-150.27;100.00;61272.81;5271843;28;20079;-73
2023/01/12 07:31:44;;;;;;;11.05;1.90;;;;;;;7.72;100.00;100406.41;5274327;28;20089;-76
2023/01/12 07:34:15;;;;;;;9.87;2.73;;;;;;;7.70;100.00;100418.69;5271910;28;20479;-75
2023/01/12 07:36:48;;;;;;;9.00;2.20;;;;;;;7.72;100.00;100423.81;5272610;28;20063;-77
2023/01/12 07:39:19;;;;;;;6.43;1.60;;;;;;;7.75;100.00;100426.25;5272888;28;20032;-76
2023/01/12 07:44:41;;;;;;;8.23;2.13;;;;;;;7.78;100.00;100413.06;5262027;28;20474;-77
2023/01/12 07:47:12;;;;;;;6.67;1.50;;;;;;;7.86;100.00;100423.91;5269883;28;20028;-75
2023/01/12 07:49:43;;;;;;;7.90;1.80;;;;;;;7.82;100.00;100426.78;5268838;28;20106;-77
2023/01/12 07:52:15;;;;;;;8.07;2.23;;;;;;;7.82;100.00;100429.38;5271436;28;20035;-76
2023/01/12 07:54:46;;;;;;;8.33;2.27;;;;;;;7.85;100.00;100426.59;5269926;28;20105;-74
2023/01/12 07:57:17;;;;;;;7.33;2.40;;;;;;;7.85;100.00;100426.59;5273024;28;20028;-75
2023/01/12 07:59:49;;;;;;;4.10;1.90;;;;;;;7.87;100.00;100433.41;5272030;28;20032;-76
2023/01/12 08:02:20;;;;;;;5.67;1.50;;;;;;;7.90;100.00;100435.00;5270620;28;20033;-71
2023/01/12 08:04:53;;;;;;;6.70;1.40;;;;;;;7.90;100.00;100440.22;5271696;28;20029;-75
2023/01/12 08:07:25;;;;;;;8.80;1.53;;;;;;;7.85;100.00;100437.03;5271818;28;20032;-75
2023/01/12 08:09:56;;;;;;;7.07;1.60;;;;;;;7.92;100.00;100448.81;5271750;28;20029;-74
2023/01/12 08:12:29;;;;;;;5.43;1.50;;;;;;;7.91;100.00;100457.53;5272514;28;20054;-76
2023/01/12 08:15:02;;;;;;;7.60;1.80;;;;;;;7.94;100.00;100473.00;5271796;28;20048;-74
2023/01/12 08:17:38;;;;;;;7.27;1.83;;;;;;;7.90;100.00;100450.66;5272873;28;20040;-77
2023/01/12 08:20:17;;;;;;;7.97;2.00;;;;;;;7.98;100.00;100458.91;5265490;28;20042;-76
2023/01/12 08:22:52;;;;;;;7.50;1.53;;;;;;;7.97;100.00;100466.81;5270953;28;20035;-76
2023/01/12 08:25:29;;;;;;;3.63;1.30;;;;;;;8.04;100.00;100462.94;5271835;28;20029;-76
2023/01/12 08:28:06;;;;;;;6.37;2.30;;;;;;;8.06;100.00;100474.13;5270939;28;20099;-74
2023/01/12 08:30:37;;;;;;;5.60;1.63;;;;;;;8.06;100.00;100468.06;5270483;28;20033;-73
2023/01/12 08:33:08;;;;;;;5.83;1.67;;;;;;;8.11;100.00;100484.31;5271278;28;20082;-72
2023/01/12 08:35:40;;;;;;;4.63;1.23;;;;;;;8.17;100.00;100478.72;5271821;28;20024;-74
2023/01/12 08:38:12;;;;;;;4.63;1.30;;;;;;;8.17;100.00;100483.94;5272712;28;20066;-77
2023/01/12 08:46:24;;;;;;;5.43;1.47;;;;;;;8.29;100.00;100492.03;5274075;28;20044;-70
2023/01/12 08:48:55;;;;;;;8.63;1.90;;;;;;;8.28;100.00;100488.56;5275745;28;20021;-76
2023/01/12 08:51:27;;;;;;;4.67;1.93;;;;;;;8.37;100.00;100483.75;5276963;28;20471;-77
2023/01/12 08:54:00;;;;;;;6.47;1.80;;;;;;;8.39;100.00;100506.25;5276449;28;20025;-73
2023/01/12 08:56:32;;;;;;;8.30;3.03;;;;;;;8.37;100.00;100497.66;5274308;28;20023;-72
2023/01/12 08:59:04;;;;;;;5.30;1.43;;;;;;;8.45;100.00;100497.22;5276197;28;20024;-74
2023/01/12 09:01:35;;;;;;;3.33;1.50;;;;;;;8.51;100.00;100501.25;5276149;28;20036;-75
2023/01/12 09:04:06;;;;;;;8.63;1.40;;;;;;;8.46;100.00;100498.91;5273779;28;20017;-76
2023/01/12 09:06:40;;;;;;;4.43;1.67;;;;;;;8.52;100.00;100502.94;5275685;28;20060;-75
2023/01/12 09:09:15;;;;;;;5.65;2.10;;;;;;;8.59;100.00;100510.38;5276381;28;20100;-75
2023/01/12 09:11:48;;;;;;;6.13;1.70;;;;;;;8.55;100.00;100502.78;5276740;28;20023;-77
2023/01/12 09:14:19;;;;;;;6.17;2.10;;;;;;;8.58;100.00;100506.09;5275484;28;20758;-77
2023/01/12 09:16:51;;;;;;;5.87;1.70;;;;;;;8.66;100.00;100507.41;5275387;28;20036;-76
2023/01/12 09:19:22;;;;;;;4.53;1.80;;;;;;;8.67;100.00;100511.69;5274686;28;20020;-70
2023/01/12 09:21:53;;;;;;;6.63;1.67;;;;;;;8.77;100.00;100517.22;5274683;28;20550;-73
2023/01/12 09:24:25;;;;;;;4.67;1.43;;;;;;;8.74;100.00;100513.03;5275520;28;20361;-73
2023/01/12 09:26:57;;;;;;;3.30;1.27;;;;;;;8.62;100.00;100500.69;5275728;28;20392;-74
2023/01/12 09:29:28;;;;;;;4.20;1.43;;;;;;;8.70;100.00;100517.59;5275974;28;20044;-74
2023/01/12 09:31:59;;;;;;;4.80;1.93;;;;;;;8.71;100.00;100514.03;5275801;28;20063;-77
2023/01/12 09:34:30;;;;;;;3.00;1.27;;;;;;;8.66;100.00;100521.28;5274975;28;20036;-77
2023/01/12 09:37:02;;;;;;;5.87;1.50;;;;;;;8.70;100.00;100522.81;5276201;28;20062;-74
2023/01/12 09:39:33;;;;;;;4.20;1.20;;;;;;;8.75;100.00;100529.53;5275225;28;20443;-74
2023/01/12 09:47:55;;;;;;;3.33;1.07;;;;;;;8.81;100.00;100535.22;5255279;28;20041;-72
2023/01/12 09:50:32;;;;;;;2.43;0.70;;;;;;;8.80;100.00;100543.16;5253548;28;20126;-76
2023/01/12 09:53:30;;;;;;;2.23;0.87;;;;;;;8.88;100.00;100540.97;5255264;28;20487;-73
2023/01/12 09:56:14;;;;;;;2.50;1.00;;;;;;;8.85;100.00;100551.56;5248240;28;20090;-70
2023/01/12 09:59:21;;;;;;;10.13;2.72;;;;;;;8.85;100.00;100553.34;5266763;28;20505;-77
2023/01/12 10:01:52;;;;;;;2.33;0.93;;;;;;;8.81;100.00;100545.69;5266839;28;20044;-74
2023/01/12 10:04:24;;;;;;;5.17;1.30;;;;;;;8.69;100.00;100526.34;5273735;28;20047;-72
2023/01/12 10:06:56;;;;;;;2.20;1.03;;;;;;;8.83;100.00;100548.22;5274640;28;20029;-73
2023/01/12 10:09:27;;;;;;;9.37;1.50;;;;;;;8.79;100.00;100541.50;5274848;28;20033;-77
2023/01/12 10:12:05;;;;;;;2.67;1.10;;;;;;;8.91;100.00;100558.22;5275919;28;20036;-78
2023/01/12 10:15:06;;;;;;;2.10;0.80;;;;;;;8.94;100.00;100556.28;5275296;28;20048;-72
2023/01/12 10:17:44;;;;;;;3.10;1.33;;;;;;;8.89;100.00;100554.84;5275727;28;20692;-76
2023/01/12 10:20:29;;;;;;;4.10;1.07;;;;;;;8.98;100.00;100558.69;5274426;28;20036;-74
2023/01/12 10:23:06;;;;;;;1.90;1.10;;;;;;;8.94;100.00;100553.66;5275022;28;20032;-75
2023/01/12 10:25:54;;;;;;;5.17;1.30;;;;;;;8.99;100.00;100557.78;5274914;28;20028;-77
2023/01/12 10:28:34;;;;;;;6.27;1.30;;;;;;;8.95;100.00;100549.28;5274880;28;20078;-78
2023/01/12 10:31:14;;;;;;;4.50;1.03;;;;;;;8.94;100.00;100545.81;5275082;28;20107;-70
2023/01/12 10:34:06;;;;;;;2.40;1.00;;;;;;;9.01;100.00;100535.00;5274041;28;20048;-77
2023/01/12 10:36:43;;;;;;;2.20;1.27;;;;;;;8.98;100.00;100550.88;5271293;28;20086;-78
2023/01/12 10:39:32;;;;;;;2.70;0.90;;;;;;;8.98;100.00;100545.66;5254182;28;20025;-78
2023/01/12 10:43:17;;;;;;;3.13;0.80;;;;;;;9.00;100.00;100544.63;5252010;28;20028;-77
2023/01/12 10:45:17;;;;;;;4.03;0.70;;;;;;;9.05;100.00;100541.75;5251849;28;20421;-75
2023/01/12 10:47:55;;;;;;;2.23;1.00;;;;;;;8.89;100.00;100532.19;5254237;28;20024;-78
2023/01/12 10:50:28;;;;;;;1.23;0.73;;;;;;;8.97;100.00;100543.97;5254152;28;20021;-77
2023/01/12 10:53:05;;;;;;;2.67;0.70;;;;;;;9.04;100.00;100547.91;5271880;28;20021;-73
2023/01/12 10:55:39;;;;;;;2.47;0.80;;;;;;;9.10;100.00;100555.38;5272454;28;20056;-74
2023/01/12 10:58:24;;;;;;;4.32;0.80;;;;;;;9.02;100.00;100540.19;5268243;28;20378;-71
2023/01/12 11:00:56;;;;;;;2.57;1.10;;;;;;;8.99;100.00;100537.72;5271861;28;20037;-76
2023/01/12 11:03:36;;;;;;;1.73;0.70;;;;;;;9.12;100.00;100543.06;5273067;28;20067;-74
2023/01/12 11:06:29;;;;;;;3.80;0.80;;;;;;;9.16;100.00;100560.25;5265523;28;20025;-74
2023/01/12 11:09:26;;;;;;;2.50;0.97;;;;;;;9.16;100.00;100560.25;5268857;28;20016;-73
2023/01/12 11:12:04;;;;;;;1.13;0.70;;;;;;;9.14;100.00;100556.06;5274865;28;20460;-74
2023/01/12 11:14:36;;;;;;;1.13;0.70;;;;;;;9.06;100.00;100556.47;5272982;28;20089;-74
2023/01/12 11:17:50;;;;;;;1.10;0.70;;;;;;;9.16;100.00;100560.25;5273336;28;20523;-75
2023/01/12 11:20:28;;;;;;;1.00;0.60;;;;;;;9.15;100.00;100547.25;5272978;28;20032;-73
2023/01/12 11:23:02;;;;;;;2.50;0.87;;;;;;;9.17;100.00;100553.25;5274039;28;20036;-75
2023/01/12 11:25:45;;;;;;;2.80;1.10;;;;;;;9.21;100.00;100539.09;5272827;28;20158;-70
2023/01/12 11:28:24;;;;;;;2.37;1.17;;;;;;;9.25;100.00;100548.41;5272239;28;20059;-77
2023/01/12 11:31:09;;;;;;;2.30;0.70;;;;;;;9.25;100.00;100547.59;5273887;28;20025;-77
2023/01/12 11:33:56;;;;;;;;;;;;;;;9.32;100.00;100541.88;5272831;28;20394;-79
2023/01/12 11:36:41;;;;;;;2.30;0.83;;;;;;;9.24;100.00;100535.44;5273193;28;20311;-81
2023/01/12 11:39:19;;;;;;;2.90;0.77;;;;;;;9.20;100.00;100546.06;5273227;28;20025;-75
2023/01/12 11:44:50;;;;;;;2.23;0.90;;;;;;;9.28;100.00;100531.72;5272990;28;20028;-75
2023/01/12 11:47:30;;;;;;;2.57;1.00;;;;;;;9.29;100.00;100526.41;5271328;28;20358;-75
2023/01/12 11:50:13;;;;;;;4.37;1.50;;;;;;;9.27;100.00;100530.03;5272798;28;20024;-72
2023/01/12 11:52:44;;;;;;;1.30;0.60;;;;;;;9.24;100.00;100538.03;5273316;28;20042;-78
2023/01/12 11:55:25;;;;;;;3.00;1.87;;;;;;;9.25;100.00;100524.88;5272614;28;20017;-75
2023/01/12 11:58:15;;;;;;;3.37;0.80;;;;;;;9.39;100.00;100518.84;5273201;28;20429;-75
2023/01/12 12:01:02;;;;;;;4.13;0.90;;;;;;;9.35;100.00;100522.59;5273281;28;20036;-74
2023/01/12 12:03:58;;;;;;;2.03;1.17;;;;;;;9.32;100.00;100518.38;5272094;28;20098;-73
2023/01/12 12:06:55;;;;;;;3.77;0.90;;;;;;;9.35;100.00;100517.34;5272670;28;20037;-74
2023/01/12 12:09:55;;;;;;;3.37;1.00;;;;;;;9.30;100.00;100524.63;5272734;28;20024;-71
2023/01/12 12:12:59;;;;;;;0.63;0.60;;;;;;;9.38;100.00;100511.09;5258607;28;20510;-74
2023/01/12 12:15:49;;;;;;;3.67;1.00;;;;;;;9.32;100.00;100514.91;5218872;28;20044;-73
2023/01/12 12:18:34;;;;;;;1.97;0.73;;;;;;;9.41;100.00;100516.97;5271570;28;20684;-73
2023/01/12 12:21:33;;;;;;;2.13;0.90;;;;;;;9.39;100.00;100505.78;5275918;28;20028;-71
2023/01/12 12:24:09;;;;;;;1.80;0.90;;;;;;;9.36;100.00;100511.19;5276657;28;20144;-74
2023/01/12 12:26:50;;;;;;;1.80;1.20;;;;;;;9.32;100.00;100505.31;5276427;28;20024;-72
2023/01/12 12:29:27;;;;;;;3.70;1.03;;;;;;;9.34;100.00;100502.59;5277058;28;20032;-75
2023/01/12 12:32:09;;;;;;;3.47;0.97;;;;;;;9.36;100.00;100503.34;5277264;28;20029;-74
2023/01/12 12:35:03;;;;;;;2.70;0.83;;;;;;;9.34;100.00;100499.97;5275776;28;20376;-73
2023/01/12 12:38:19;;;;;;;2.40;0.87;;;;;;;9.38;100.00;100498.88;5276969;28;20063;-71
2023/01/12 12:47:45;;;;;;;1.60;0.80;;;;;;;9.31;100.00;100500.16;5276514;28;20087;-72
2023/01/12 12:50:21;;;;;;;5.17;0.90;;;;;;;9.23;100.00;100481.50;5275150;28;20037;-76
2023/01/12 12:53:24;;;;;;;2.70;1.10;;;;;;;9.25;100.00;100475.25;5276628;28;20058;-78